Time;durP1;ratioP1;P1;durP2;ratioP2;P2;SDS_P1;SDS_P2;PMS_P1;PMS_P2;Temp;Humidity;BMP_temperature;BMP_pressure;BME280_temperature;BME280_humidity;BME280_pressure;Samples;Min_cycle;Max_cycle;Signal;HPM_P1;HPM_P2
2020/12/22 00:00:07;;;;;;;1.10;1.10;;;;;;;6.33;96.13;95761.47;6027873;23;20876;-70
2020/12/22 00:02:41;;;;;;;1.30;1.20;;;;;;;6.46;95.70;95770.56;6027954;23;20289;-70
2020/12/22 00:05:08;;;;;;;0.93;0.93;;;;;;;6.51;95.32;95770.09;6027849;23;20540;-71
2020/12/22 00:07:36;;;;;;;0.87;0.87;;;;;;;6.65;94.60;95781.78;6028689;23;20203;-70
2020/12/22 00:10:03;;;;;;;0.60;0.60;;;;;;;6.69;94.44;95783.13;6027807;23;20211;-70
2020/12/22 00:12:31;;;;;;;1.10;1.00;;;;;;;6.86;93.89;95769.13;6026240;23;20202;-70
2020/12/22 00:14:58;;;;;;;0.60;0.60;;;;;;;6.90;93.24;95759.94;6027807;23;20258;-69
2020/12/22 00:17:26;;;;;;;1.67;1.57;;;;;;;6.88;93.20;95766.34;6026526;23;20206;-70
2020/12/22 00:19:53;;;;;;;0.70;0.70;;;;;;;6.92;93.18;95760.59;6026036;23;20290;-70
2020/12/22 00:22:20;;;;;;;1.10;0.97;;;;;;;6.98;93.33;95762.59;6045446;23;20584;-70
2020/12/22 00:24:48;;;;;;;0.80;0.80;;;;;;;6.97;93.31;95766.19;6054503;23;20533;-71
2020/12/22 00:27:15;;;;;;;0.87;0.87;;;;;;;7.02;93.50;95765.72;6056396;23;20217;-70
2020/12/22 00:29:43;;;;;;;1.03;0.93;;;;;;;6.95;93.71;95776.03;6056278;23;20344;-71
2020/12/22 00:32:10;;;;;;;1.17;0.60;;;;;;;7.02;93.91;95776.19;6055893;23;20739;-72
2020/12/22 00:34:36;;;;;;;0.50;0.40;;;;;;;7.04;93.75;95767.22;6056765;23;20260;-70
2020/12/22 00:37:04;;;;;;;0.60;0.60;;;;;;;7.06;93.93;95774.94;6056847;23;20206;-71
2020/12/22 00:39:31;;;;;;;0.60;0.50;;;;;;;7.10;93.23;95766.56;6057229;23;20269;-71
2020/12/22 00:41:59;;;;;;;0.50;0.50;;;;;;;7.23;93.40;95774.00;6054897;23;20265;-70
2020/12/22 00:44:26;;;;;;;0.20;0.20;;;;;;;7.15;93.55;95783.66;6054421;23;20225;-70
2020/12/22 00:46:53;;;;;;;1.13;0.77;;;;;;;7.10;94.67;95800.66;6057026;23;20262;-70
2020/12/22 00:49:20;;;;;;;0.50;0.50;;;;;;;7.05;95.21;95795.09;6054499;23;20205;-70
2020/12/22 00:51:48;;;;;;;1.37;1.03;;;;;;;7.10;95.46;95773.63;6054598;23;20760;-70
2020/12/22 00:54:15;;;;;;;0.90;0.90;;;;;;;7.07;95.71;95781.81;6056988;23;20213;-70
2020/12/22 00:56:47;;;;;;;0.87;0.87;;;;;;;7.12;96.16;95790.00;6054880;23;20194;-70
2020/12/22 00:59:20;;;;;;;0.80;0.70;;;;;;;7.12;96.29;95798.69;6054519;23;20209;-70
2020/12/22 01:01:47;;;;;;;1.03;1.03;;;;;;;7.13;96.12;95758.38;6056159;23;20210;-69
2020/12/22 01:04:14;;;;;;;0.87;0.87;;;;;;;7.12;95.90;95777.72;6056343;23;20206;-70
2020/12/22 01:06:41;;;;;;;0.40;0.40;;;;;;;7.20;95.92;95760.34;6055962;23;20210;-71
2020/12/22 01:09:09;;;;;;;1.57;1.47;;;;;;;7.21;95.59;95778.56;6055433;23;20655;-71
2020/12/22 01:11:36;;;;;;;0.80;0.80;;;;;;;7.16;95.75;95759.03;6056581;23;20209;-71
2020/12/22 01:14:04;;;;;;;2.33;2.23;;;;;;;7.20;95.80;95755.91;6055436;23;20480;-72
2020/12/22 01:16:32;;;;;;;1.00;1.00;;;;;;;7.27;95.55;95759.56;6054720;23;20253;-71
2020/12/22 01:18:59;;;;;;;0.90;0.90;;;;;;;7.25;95.21;95764.16;6054338;23;20222;-71
2020/12/22 01:21:26;;;;;;;1.03;1.00;;;;;;;7.35;94.81;95764.00;6057624;23;20202;-71
2020/12/22 01:23:53;;;;;;;0.70;0.70;;;;;;;7.36;94.86;95749.91;6057242;23;20257;-71
2020/12/22 01:26:21;;;;;;;1.13;1.13;;;;;;;7.46;94.33;95763.69;6058732;23;20214;-69
2020/12/22 01:28:48;;;;;;;1.03;1.03;;;;;;;7.45;94.38;95759.44;6058016;23;20238;-71
2020/12/22 01:31:24;;;;;;;1.07;0.97;;;;;;;7.48;94.56;95760.91;6057559;23;20204;-71
2020/12/22 01:33:52;;;;;;;1.83;1.73;;;;;;;7.49;94.09;95762.53;6057763;23;20209;-70
2020/12/22 01:36:20;;;;;;;1.90;1.80;;;;;;;7.58;94.13;95751.88;6057655;23;20208;-70
2020/12/22 01:38:48;;;;;;;1.57;1.47;;;;;;;7.59;93.56;95744.81;6058608;23;20226;-69
2020/12/22 01:41:15;;;;;;;1.10;1.10;;;;;;;7.56;93.86;95730.22;6057808;23;20202;-70
2020/12/22 01:44:00;;;;;;;2.03;1.93;;;;;;;7.60;93.41;95749.09;6056300;23;20713;-71
2020/12/22 01:46:32;;;;;;;1.00;0.90;;;;;;;7.60;93.50;95726.28;5937878;23;20215;-71
2020/12/22 01:49:03;;;;;;;1.50;1.40;;;;;;;7.63;93.83;95736.47;6022668;23;20241;-71
2020/12/22 01:51:31;;;;;;;1.53;1.43;;;;;;;7.66;93.50;95741.38;6027404;23;20557;-70
2020/12/22 01:53:58;;;;;;;1.73;1.63;;;;;;;7.66;93.82;95730.88;6028148;23;20206;-71
2020/12/22 01:56:24;;;;;;;3.10;2.07;;;;;;;7.71;93.54;95727.78;6026102;23;20210;-71
2020/12/22 01:58:51;;;;;;;1.40;1.30;;;;;;;7.66;93.68;95714.28;6030240;23;20219;-71
2020/12/22 02:01:18;;;;;;;0.93;0.83;;;;;;;7.70;93.56;95721.69;6029299;23;20275;-70
2020/12/22 02:03:45;;;;;;;3.37;3.07;;;;;;;7.69;93.33;95729.75;6028386;23;20203;-71
2020/12/22 02:06:13;;;;;;;1.90;1.80;;;;;;;7.69;93.17;95725.31;6027062;23;20207;-70
2020/12/22 02:08:39;;;;;;;1.57;1.40;;;;;;;7.65;93.90;95723.97;6029548;23;20213;-71
2020/12/22 02:11:06;;;;;;;1.00;1.00;;;;;;;7.75;93.55;95725.63;6029089;23;20203;-71
2020/12/22 02:13:33;;;;;;;1.03;0.97;;;;;;;7.78;93.14;95727.94;6028971;23;20210;-70
2020/12/22 02:16:00;;;;;;;1.07;0.97;;;;;;;7.77;93.18;95721.03;6029364;23;20298;-71
2020/12/22 02:18:27;;;;;;;1.67;1.57;;;;;;;7.77;93.29;95713.13;6029032;23;20203;-71
2020/12/22 02:20:53;;;;;;;1.20;1.17;;;;;;;7.78;92.83;95715.63;6028831;23;20270;-72
2020/12/22 02:23:21;;;;;;;1.47;0.83;;;;;;;7.88;92.61;95708.38;6025711;23;20206;-71
2020/12/22 02:25:48;;;;;;;1.50;1.23;;;;;;;7.91;92.74;95728.25;6028805;23;20216;-71
2020/12/22 02:28:16;;;;;;;1.20;1.07;;;;;;;7.89;92.50;95732.84;6027871;23;20737;-71
2020/12/22 02:30:43;;;;;;;1.93;1.77;;;;;;;7.81;92.43;95732.84;6026787;23;20617;-71
2020/12/22 02:33:11;;;;;;;1.70;1.60;;;;;;;7.91;92.18;95729.06;6028573;23;20211;-70
2020/12/22 02:35:38;;;;;;;1.60;1.50;;;;;;;7.89;91.86;95727.59;6029142;23;20635;-71
2020/12/22 02:38:06;;;;;;;2.20;2.10;;;;;;;7.97;91.76;95725.78;6029498;23;20207;-70
2020/12/22 02:40:34;;;;;;;1.60;1.50;;;;;;;7.86;91.57;95723.50;6029304;23;20211;-71
2020/12/22 02:43:09;;;;;;;1.10;1.07;;;;;;;7.84;92.11;95732.50;6057855;23;20233;-70
2020/12/22 02:45:37;;;;;;;1.03;1.00;;;;;;;7.99;92.14;95725.63;6057599;23;20265;-71
2020/12/22 02:48:04;;;;;;;1.47;1.37;;;;;;;7.93;92.05;95721.00;6056766;23;20203;-71
2020/12/22 02:50:31;;;;;;;1.43;1.20;;;;;;;7.82;91.88;95729.25;6058062;23;20206;-72
2020/12/22 02:52:57;;;;;;;1.40;1.30;;;;;;;7.78;91.76;95718.25;6057646;23;20590;-71
2020/12/22 02:55:24;;;;;;;0.97;0.97;;;;;;;7.80;91.75;95736.47;6056195;23;20243;-71
2020/12/22 02:57:52;;;;;;;2.07;1.97;;;;;;;7.69;92.27;95740.25;6057837;23;20728;-71
2020/12/22 03:00:19;;;;;;;1.80;1.67;;;;;;;7.76;92.37;95745.66;6057243;23;20210;-71
2020/12/22 03:02:47;;;;;;;1.13;1.13;;;;;;;7.83;92.01;95763.22;6057337;23;20652;-71
2020/12/22 03:05:14;;;;;;;0.90;0.90;;;;;;;7.78;91.94;95759.47;6057055;23;20257;-70
2020/12/22 03:07:40;;;;;;;2.90;2.17;;;;;;;7.75;92.38;95751.88;6057760;23;20203;-71
2020/12/22 03:10:08;;;;;;;1.83;1.67;;;;;;;7.82;92.32;95760.75;6055406;23;20555;-70
2020/12/22 03:12:35;;;;;;;2.03;1.80;;;;;;;7.72;92.16;95768.00;6056419;23;20203;-69
2020/12/22 03:15:05;;;;;;;1.97;1.87;;;;;;;7.80;92.28;95786.38;6055005;23;20210;-71
2020/12/22 03:17:32;;;;;;;1.60;1.50;;;;;;;7.94;91.87;95780.47;6045732;23;20265;-71
2020/12/22 03:20:00;;;;;;;1.67;1.57;;;;;;;7.89;92.02;95767.81;6056133;23;20214;-71
2020/12/22 03:22:27;;;;;;;1.57;1.47;;;;;;;7.90;91.54;95763.41;6054893;23;20206;-71
2020/12/22 03:24:55;;;;;;;1.53;1.43;;;;;;;7.97;91.34;95753.88;6054016;23;20251;-72
2020/12/22 03:27:22;;;;;;;1.67;1.57;;;;;;;7.95;91.43;95751.41;6057136;23;20267;-71
2020/12/22 03:29:48;;;;;;;1.10;1.10;;;;;;;7.97;91.80;95769.63;6057194;23;20206;-71
2020/12/22 03:32:16;;;;;;;1.83;1.30;;;;;;;8.16;90.79;95758.78;6056801;23;20283;-71
2020/12/22 03:34:43;;;;;;;1.43;1.10;;;;;;;8.12;90.77;95749.56;6056938;23;20277;-71
2020/12/22 03:37:10;;;;;;;0.80;0.77;;;;;;;8.13;91.14;95759.09;6055304;23;20239;-71
2020/12/22 03:39:37;;;;;;;1.37;1.27;;;;;;;8.18;90.83;95756.81;6057128;23;20251;-71
2020/12/22 03:42:04;;;;;;;2.10;1.10;;;;;;;8.17;91.02;95751.72;6057044;23;20230;-71
2020/12/22 03:44:31;;;;;;;1.60;1.50;;;;;;;8.18;90.81;95751.53;6057864;23;20206;-70
2020/12/22 03:46:58;;;;;;;0.80;0.80;;;;;;;8.22;90.43;95747.56;6051904;23;20214;-71
2020/12/22 03:49:25;;;;;;;1.03;0.67;;;;;;;8.26;90.77;95759.41;6051010;23;21061;-71
2020/12/22 03:51:52;;;;;;;0.60;0.57;;;;;;;8.27;90.40;95754.97;6052392;23;20247;-71
2020/12/22 03:54:19;;;;;;;0.70;0.60;;;;;;;8.37;90.42;95752.19;6053348;23;20273;-71
2020/12/22 03:56:46;;;;;;;0.93;0.93;;;;;;;8.37;90.60;95757.47;6052475;23;20203;-71
2020/12/22 03:59:13;;;;;;;1.27;1.17;;;;;;;8.39;90.42;95744.94;6054910;23;20945;-71
2020/12/22 04:01:39;;;;;;;0.60;0.60;;;;;;;8.32;90.62;95750.06;6055357;23;20220;-71
2020/12/22 04:04:06;;;;;;;1.70;1.60;;;;;;;8.37;90.32;95760.09;6055578;23;20264;-71
2020/12/22 04:06:34;;;;;;;1.23;0.90;;;;;;;8.46;90.11;95764.34;6056727;23;20207;-71
2020/12/22 04:09:01;;;;;;;1.33;1.23;;;;;;;8.51;89.87;95767.28;6057399;23;20751;-71
2020/12/22 04:11:27;;;;;;;0.70;0.70;;;;;;;8.57;89.23;95765.78;6055241;23;20208;-70
2020/12/22 04:13:54;;;;;;;1.60;0.93;;;;;;;8.60;89.17;95766.28;6057022;23;20272;-70
2020/12/22 04:16:23;;;;;;;1.07;0.97;;;;;;;8.65;88.45;95756.06;6057049;23;20769;-71
2020/12/22 04:18:50;;;;;;;0.73;0.70;;;;;;;8.57;88.99;95761.34;6055797;23;20738;-69
2020/12/22 04:21:16;;;;;;;0.50;0.50;;;;;;;8.64;88.61;95757.06;6055912;23;20260;-70
2020/12/22 04:23:44;;;;;;;0.67;0.67;;;;;;;8.65;89.00;95737.66;6055611;23;20277;-71
2020/12/22 04:26:11;;;;;;;0.50;0.50;;;;;;;8.68;88.13;95732.03;6056614;23;20204;-71
2020/12/22 04:28:38;;;;;;;0.70;0.70;;;;;;;8.74;88.13;95731.38;6054966;23;20200;-70
2020/12/22 04:31:06;;;;;;;0.93;0.40;;;;;;;8.79;88.17;95721.16;6053842;23;20676;-70
2020/12/22 04:33:32;;;;;;;0.57;0.50;;;;;;;8.75;88.30;95722.47;6055915;23;20206;-70
2020/12/22 04:35:59;;;;;;;2.13;1.73;;;;;;;8.68;88.43;95736.47;6056481;23;20206;-71
2020/12/22 04:38:26;;;;;;;0.60;0.50;;;;;;;8.74;88.35;95741.88;6056555;23;20211;-70
2020/12/22 04:40:54;;;;;;;2.90;1.17;;;;;;;8.68;88.49;95737.28;6050592;23;20211;-70
2020/12/22 04:43:22;;;;;;;0.67;0.60;;;;;;;8.74;88.16;95747.16;6051791;23;20861;-69
2020/12/22 04:45:51;;;;;;;0.60;0.60;;;;;;;8.79;88.49;95750.09;6054582;23;20920;-69
2020/12/22 04:48:19;;;;;;;0.67;0.50;;;;;;;8.83;88.70;95748.75;6052264;23;20975;-69
2020/12/22 04:50:59;;;;;;;0.70;0.70;;;;;;;8.87;87.98;95767.69;6053732;23;20562;-71
2020/12/22 04:53:28;;;;;;;1.63;1.53;;;;;;;8.94;87.93;95773.06;6053783;23;20373;-70
2020/12/22 04:55:56;;;;;;;0.50;0.50;;;;;;;8.98;88.01;95777.00;6055574;23;20217;-71
2020/12/22 04:58:24;;;;;;;1.17;1.07;;;;;;;8.95;87.99;95796.56;6055478;23;20300;-70
2020/12/22 05:00:51;;;;;;;0.40;0.40;;;;;;;9.00;87.71;95796.06;6054817;23;20204;-71
2020/12/22 05:03:21;;;;;;;0.50;0.40;;;;;;;8.92;87.71;95778.50;6052163;23;20210;-70
2020/12/22 05:05:48;;;;;;;0.73;0.50;;;;;;;8.99;87.13;95791.81;6054609;23;20276;-71
2020/12/22 05:08:15;;;;;;;0.53;0.53;;;;;;;8.91;87.63;95783.94;6056133;23;20203;-70
2020/12/22 05:10:44;;;;;;;1.00;0.37;;;;;;;8.88;87.76;95771.13;6055758;23;20211;-71
2020/12/22 05:13:13;;;;;;;0.63;0.43;;;;;;;8.81;87.95;95769.16;6056130;23;20274;-69
2020/12/22 05:15:42;;;;;;;0.33;0.33;;;;;;;8.73;88.15;95771.81;6058426;23;20263;-71
2020/12/22 05:18:09;;;;;;;0.47;0.47;;;;;;;8.67;88.10;95772.50;6040876;23;20237;-71
2020/12/22 05:20:40;;;;;;;0.50;0.40;;;;;;;8.61;88.19;95757.41;6057469;23;20215;-71
2020/12/22 05:23:09;;;;;;;0.80;0.57;;;;;;;8.67;88.52;95751.44;6056167;23;20978;-71
2020/12/22 05:25:36;;;;;;;0.30;0.27;;;;;;;8.73;87.90;95758.66;6056511;23;20205;-69
2020/12/22 05:28:06;;;;;;;0.60;0.60;;;;;;;8.72;87.75;95761.47;6057276;23;20205;-70
2020/12/22 05:30:36;;;;;;;0.47;0.47;;;;;;;8.75;87.53;95769.03;6056706;23;20244;-71
2020/12/22 05:33:03;;;;;;;2.90;0.67;;;;;;;8.82;87.93;95755.00;6045873;23;20220;-70
2020/12/22 05:35:38;;;;;;;0.40;0.40;;;;;;;8.78;87.92;95766.88;6028791;23;20228;-71
2020/12/22 05:38:06;;;;;;;0.60;0.30;;;;;;;8.83;87.57;95756.66;6025724;23;20266;-69
2020/12/22 05:40:34;;;;;;;0.53;0.50;;;;;;;8.71;87.60;95763.28;6027949;23;20212;-70
2020/12/22 05:43:01;;;;;;;0.30;0.30;;;;;;;8.78;87.67;95764.25;6025366;23;20231;-70
2020/12/22 05:45:31;;;;;;;0.50;0.40;;;;;;;8.76;87.17;95765.41;6026847;23;20230;-71
2020/12/22 05:48:00;;;;;;;0.30;0.30;;;;;;;8.73;87.41;95761.28;6029199;23;20203;-70
2020/12/22 05:50:27;;;;;;;0.40;0.30;;;;;;;8.69;86.98;95765.28;6029488;23;20668;-70
2020/12/22 05:52:56;;;;;;;0.40;0.40;;;;;;;8.67;87.52;95761.97;6026116;23;20260;-71
2020/12/22 05:55:27;;;;;;;0.60;0.60;;;;;;;8.62;87.92;95759.03;6029146;23;20209;-71
2020/12/22 05:58:07;;;;;;;0.30;0.20;;;;;;;8.60;87.61;95766.28;6027222;23;20204;-71
2020/12/22 06:00:35;;;;;;;0.40;0.40;;;;;;;8.63;88.28;95755.41;6028807;23;20212;-71
2020/12/22 06:03:07;;;;;;;2.03;0.53;;;;;;;8.50;88.11;95755.97;6029267;23;20243;-70
2020/12/22 06:05:37;;;;;;;0.47;0.40;;;;;;;8.60;88.29;95754.94;6027960;23;20262;-70
2020/12/22 06:08:08;;;;;;;0.67;0.60;;;;;;;8.49;88.04;95738.50;6030159;23;20209;-71
2020/12/22 06:10:36;;;;;;;0.53;0.53;;;;;;;8.64;87.88;95746.53;6028540;23;20220;-71
2020/12/22 06:13:04;;;;;;;0.50;0.50;;;;;;;8.59;87.45;95745.38;6028721;23;20529;-71
2020/12/22 06:15:32;;;;;;;0.67;0.50;;;;;;;8.65;87.58;95749.97;6029424;23;20262;-71
2020/12/22 06:17:59;;;;;;;0.63;0.60;;;;;;;8.67;87.81;95743.56;6029313;23;20272;-70
2020/12/22 06:20:28;;;;;;;0.40;0.40;;;;;;;8.71;87.38;95750.13;6029019;23;20262;-71
2020/12/22 06:23:00;;;;;;;1.07;0.80;;;;;;;8.63;87.50;95742.25;6031674;23;20201;-71
2020/12/22 06:25:28;;;;;;;1.93;0.67;;;;;;;8.66;88.02;95762.97;6031540;23;20236;-70
2020/12/22 06:27:56;;;;;;;1.17;0.77;;;;;;;8.73;87.59;95749.97;6026688;23;20205;-70
2020/12/22 06:30:32;;;;;;;0.93;0.93;;;;;;;8.91;87.63;95760.25;6030134;23;20224;-71
2020/12/22 06:33:19;;;;;;;0.53;0.53;;;;;;;8.93;86.98;95758.25;6030662;23;20607;-70
2020/12/22 06:36:05;;;;;;;0.97;0.70;;;;;;;9.04;87.00;95771.03;6030746;23;20231;-69
2020/12/22 06:38:55;;;;;;;0.63;0.53;;;;;;;9.08;86.35;95778.44;6029245;23;20207;-70
2020/12/22 06:41:46;;;;;;;0.70;0.70;;;;;;;9.07;86.23;95789.13;6056341;23;20731;-70
2020/12/22 06:44:27;;;;;;;0.50;0.50;;;;;;;9.12;85.99;95774.44;6058410;23;20287;-69
2020/12/22 06:46:55;;;;;;;0.60;0.50;;;;;;;9.16;86.40;95761.78;6059168;23;20236;-70
2020/12/22 06:49:48;;;;;;;1.03;0.50;;;;;;;9.12;86.32;95765.75;6059549;23;20264;-70
2020/12/22 06:52:29;;;;;;;0.77;0.70;;;;;;;9.11;86.23;95774.63;6058861;23;20286;-69
2020/12/22 06:54:56;;;;;;;0.57;0.57;;;;;;;9.16;86.15;95777.59;6058700;23;20530;-69
2020/12/22 06:57:42;;;;;;;0.70;0.70;;;;;;;9.06;85.98;95785.69;6057484;23;20213;-69
2020/12/22 07:00:10;;;;;;;0.30;0.30;;;;;;;9.12;85.86;95792.88;6057981;23;20268;-69
2020/12/22 07:02:45;;;;;;;0.53;0.53;;;;;;;9.22;85.60;95791.84;6059315;23;20359;-69
2020/12/22 07:05:36;;;;;;;1.70;0.60;;;;;;;9.25;85.46;95794.97;6059053;23;20288;-69
2020/12/22 07:08:05;;;;;;;0.50;0.50;;;;;;;9.25;85.65;95787.09;6057586;23;20260;-69
2020/12/22 07:10:37;;;;;;;1.03;1.03;;;;;;;9.33;85.23;95787.03;6059332;23;20762;-69
2020/12/22 07:13:06;;;;;;;0.40;0.40;;;;;;;9.40;84.90;95792.41;6057676;23;20256;-69
2020/12/22 07:15:34;;;;;;;0.83;0.50;;;;;;;9.34;84.89;95780.78;6057600;23;20297;-69
2020/12/22 07:18:09;;;;;;;0.77;0.20;;;;;;;9.38;85.35;95800.50;6059562;23;20703;-69
2020/12/22 07:20:39;;;;;;;0.20;0.20;;;;;;;9.47;85.28;95805.72;6058555;23;20663;-70
2020/12/22 07:23:07;;;;;;;0.33;0.30;;;;;;;9.51;85.10;95796.47;6059506;23;20217;-68
2020/12/22 07:25:36;;;;;;;0.30;0.20;;;;;;;9.53;84.76;95795.31;6059879;23;20519;-69
2020/12/22 07:28:04;;;;;;;0.20;0.10;;;;;;;9.54;84.63;95790.88;6058996;23;20274;-69
2020/12/22 07:30:31;;;;;;;0.20;0.20;;;;;;;9.70;84.26;95811.84;6058736;23;20209;-69
2020/12/22 07:33:00;;;;;;;0.10;0.10;;;;;;;9.69;84.07;95804.91;6057358;23;20205;-68
2020/12/22 07:35:27;;;;;;;1.00;0.30;;;;;;;9.76;83.70;95805.03;6058612;23;20231;-69
2020/12/22 07:38:00;;;;;;;0.20;0.20;;;;;;;9.84;83.89;95802.34;6058318;23;20261;-69
2020/12/22 07:40:28;;;;;;;0.20;0.10;;;;;;;9.82;83.36;95788.53;6058800;23;20700;-69
2020/12/22 07:43:03;;;;;;;0.20;0.20;;;;;;;9.75;83.60;95798.97;6058463;23;20282;-69
2020/12/22 07:45:30;;;;;;;0.10;0.10;;;;;;;9.87;83.37;95807.28;6057792;23;20263;-69
2020/12/22 07:47:57;;;;;;;0.20;0.20;;;;;;;9.94;82.85;95809.03;6057078;23;20233;-69
2020/12/22 07:50:23;;;;;;;0.30;0.30;;;;;;;9.90;83.22;95810.38;6057203;23;20269;-69
2020/12/22 07:52:58;;;;;;;0.20;0.13;;;;;;;9.94;83.17;95798.50;6059087;23;20194;-68
2020/12/22 07:55:25;;;;;;;0.33;0.20;;;;;;;9.90;83.00;95797.22;6058747;23;20253;-68
2020/12/22 07:57:56;;;;;;;0.00;0.00;;;;;;;9.86;83.23;95790.63;6059115;23;20222;-70
2020/12/22 08:00:24;;;;;;;0.10;0.10;;;;;;;9.91;83.40;95793.56;6058573;23;20210;-68
2020/12/22 08:02:50;;;;;;;0.77;0.20;;;;;;;9.98;83.05;95796.34;6058367;23;20466;-70
2020/12/22 08:05:17;;;;;;;0.53;0.50;;;;;;;9.92;83.28;95803.13;6057097;23;20207;-69
2020/12/22 08:07:52;;;;;;;0.10;0.10;;;;;;;9.92;83.58;95795.22;6058952;23;20202;-69
2020/12/22 08:10:18;;;;;;;0.33;0.20;;;;;;;9.95;83.31;95815.94;6058194;23;20231;-70
2020/12/22 08:12:52;;;;;;;0.43;0.27;;;;;;;10.08;83.06;95798.72;6059053;23;20823;-69
2020/12/22 08:15:21;;;;;;;2.43;1.13;;;;;;;10.08;82.82;95798.72;6058816;23;20210;-69
2020/12/22 08:17:55;;;;;;;0.27;0.27;;;;;;;10.23;82.47;95818.88;6058916;23;20202;-69
2020/12/22 08:20:23;;;;;;;0.17;0.10;;;;;;;10.31;82.27;95817.19;6057718;23;20214;-69
2020/12/22 08:22:50;;;;;;;0.57;0.57;;;;;;;10.35;82.27;95811.38;6057449;23;20661;-70
2020/12/22 08:25:17;;;;;;;0.37;0.33;;;;;;;10.31;81.63;95802.16;6059212;23;20214;-69
2020/12/22 08:27:44;;;;;;;0.10;0.10;;;;;;;10.31;81.80;95820.63;6058537;23;20293;-70
2020/12/22 08:30:18;;;;;;;0.10;0.10;;;;;;;10.32;81.67;95817.00;6058368;23;20220;-69
2020/12/22 08:32:46;;;;;;;0.13;0.10;;;;;;;10.37;81.52;95806.75;6055066;23;20262;-70
2020/12/22 08:35:14;;;;;;;0.20;0.10;;;;;;;10.36;81.64;95822.75;6058115;23;20210;-70
2020/12/22 08:37:41;;;;;;;1.37;0.20;;;;;;;10.28;81.70;95821.00;6058737;23;20206;-69
2020/12/22 08:40:25;;;;;;;0.10;0.10;;;;;;;10.20;82.66;95807.84;6058881;23;20309;-69
2020/12/22 08:42:53;;;;;;;0.20;0.20;;;;;;;10.30;82.36;95800.53;6058282;23;20215;-69
2020/12/22 08:45:20;;;;;;;0.20;0.10;;;;;;;10.28;82.39;95802.53;6058998;23;20206;-69
2020/12/22 08:47:51;;;;;;;0.30;0.30;;;;;;;10.32;81.93;95806.44;6058866;23;20265;-69
2020/12/22 08:50:18;;;;;;;1.13;0.20;;;;;;;10.26;82.50;95791.34;6058034;23;20830;-69
2020/12/22 08:52:45;;;;;;;0.13;0.13;;;;;;;10.24;82.26;95803.88;6058799;23;20692;-69
2020/12/22 08:55:12;;;;;;;0.50;0.43;;;;;;;10.36;82.08;95818.28;6058566;23;20261;-69
2020/12/22 08:57:40;;;;;;;0.20;0.10;;;;;;;10.35;82.02;95811.38;6058489;23;20202;-69
2020/12/22 09:00:13;;;;;;;0.20;0.20;;;;;;;10.40;81.51;95813.47;6057496;23;20224;-70
2020/12/22 09:02:41;;;;;;;0.10;0.10;;;;;;;10.41;81.37;95817.75;6056940;23;20214;-70
2020/12/22 09:05:14;;;;;;;0.37;0.20;;;;;;;10.42;81.08;95822.88;6057806;23;20827;-68
2020/12/22 09:07:41;;;;;;;0.20;0.20;;;;;;;10.53;80.65;95825.06;6058631;23;20205;-69
2020/12/22 09:10:09;;;;;;;0.10;0.10;;;;;;;10.69;79.78;95836.44;6055805;23;20210;-69
2020/12/22 09:12:36;;;;;;;0.30;0.20;;;;;;;10.75;79.22;95828.63;6057247;23;20699;-69
2020/12/22 09:15:06;;;;;;;0.60;0.60;;;;;;;10.77;79.98;95839.81;6058403;23;20254;-69
2020/12/22 09:17:35;;;;;;;0.27;0.10;;;;;;;10.80;80.12;95846.59;6058277;23;20265;-69
2020/12/22 09:20:04;;;;;;;0.30;0.13;;;;;;;10.82;79.67;95850.69;6056153;23;20206;-69
2020/12/22 09:22:32;;;;;;;0.07;0.07;;;;;;;10.86;79.46;95840.56;6066702;23;20662;-70
2020/12/22 09:25:02;;;;;;;0.20;0.10;;;;;;;10.89;79.05;95871.91;6058560;23;20207;-69
2020/12/22 09:27:30;;;;;;;0.50;0.50;;;;;;;10.93;79.46;95852.06;6052993;23;20269;-70
2020/12/22 09:29:57;;;;;;;0.97;0.20;;;;;;;10.86;79.65;95845.84;6057698;23;20777;-69
2020/12/22 09:32:25;;;;;;;0.10;0.10;;;;;;;10.96;78.73;95866.69;6053885;23;20202;-69
2020/12/22 09:34:52;;;;;;;0.10;0.10;;;;;;;11.10;78.25;95858.81;6058157;23;20222;-68
2020/12/22 09:37:22;;;;;;;0.17;0.17;;;;;;;11.20;77.79;95857.72;6058161;23;20684;-70
2020/12/22 09:39:50;;;;;;;0.10;0.10;;;;;;;11.28;77.34;95865.53;6057898;23;20281;-69
2020/12/22 09:42:18;;;;;;;0.20;0.20;;;;;;;11.24;76.90;95853.69;6057920;23;20274;-69
2020/12/22 09:44:45;;;;;;;0.10;0.10;;;;;;;11.09;77.58;95866.91;6060322;23;20208;-70
2020/12/22 09:47:13;;;;;;;0.97;0.97;;;;;;;11.01;77.40;95881.00;6060231;23;20200;-69
2020/12/22 09:49:39;;;;;;;0.20;0.10;;;;;;;11.01;78.38;95874.91;6059832;23;20248;-69
2020/12/22 09:52:06;;;;;;;0.30;0.20;;;;;;;11.04;78.01;95893.84;6058612;23;20262;-69
2020/12/22 09:54:33;;;;;;;0.33;0.30;;;;;;;11.09;77.24;95894.13;6059810;23;20237;-69
2020/12/22 09:57:01;;;;;;;0.20;0.20;;;;;;;11.07;77.32;95885.59;6059905;23;20202;-69
2020/12/22 09:59:28;;;;;;;0.00;0.00;;;;;;;11.03;77.30;95868.44;6057693;23;20210;-68
2020/12/22 10:01:58;;;;;;;0.20;0.10;;;;;;;11.02;77.73;95882.66;6057787;23;20202;-68
2020/12/22 10:04:25;;;;;;;0.50;0.50;;;;;;;11.09;77.66;95872.19;6060451;23;20204;-68
2020/12/22 10:06:52;;;;;;;0.20;0.10;;;;;;;11.06;78.15;95857.53;6059632;23;20206;-69
2020/12/22 10:09:19;;;;;;;0.20;0.20;;;;;;;10.98;78.09;95857.63;6060300;23;20218;-68
2020/12/22 10:11:46;;;;;;;0.20;0.20;;;;;;;11.07;77.59;95861.00;6059017;23;20203;-69
2020/12/22 10:14:15;;;;;;;1.00;0.77;;;;;;;11.13;77.73;95876.09;6058212;23;20269;-69
2020/12/22 10:16:42;;;;;;;0.10;0.10;;;;;;;11.01;77.52;95859.88;6058499;23;20234;-69
2020/12/22 10:19:10;;;;;;;0.57;0.57;;;;;;;11.06;77.85;95862.81;6057989;23;20221;-69
2020/12/22 10:21:37;;;;;;;0.10;0.10;;;;;;;11.07;77.53;95874.19;6059288;23;20683;-69
2020/12/22 10:24:04;;;;;;;0.17;0.10;;;;;;;11.17;76.82;95863.38;6059816;23;20260;-69
2020/12/22 10:26:33;;;;;;;0.10;0.10;;;;;;;11.07;76.89;95869.75;6060193;23;20852;-69
2020/12/22 10:29:00;;;;;;;0.27;0.10;;;;;;;11.08;77.51;95867.91;6059306;23;20274;-69
2020/12/22 10:31:29;;;;;;;0.40;0.40;;;;;;;11.07;77.98;95861.81;6059257;23;20233;-68
2020/12/22 10:33:56;;;;;;;0.70;0.10;;;;;;;11.03;78.26;95865.81;6053608;23;20262;-68
2020/12/22 10:36:25;;;;;;;0.30;0.20;;;;;;;11.07;77.16;95875.03;6058801;23;20211;-69
2020/12/22 10:38:55;;;;;;;0.03;0.03;;;;;;;11.01;78.18;95872.28;6059877;23;20211;-69
2020/12/22 10:41:21;;;;;;;0.10;0.10;;;;;;;11.09;77.59;95872.19;6057794;23;20270;-69
2020/12/22 10:43:49;;;;;;;1.60;0.77;;;;;;;11.01;78.80;95870.44;6058632;23;20228;-69
2020/12/22 10:46:16;;;;;;;0.10;0.10;;;;;;;10.87;79.28;95868.59;6056744;23;20269;-69
2020/12/22 10:48:44;;;;;;;0.10;0.10;;;;;;;10.89;79.12;95861.34;6081646;23;20538;-70
2020/12/22 10:51:12;;;;;;;2.23;0.10;;;;;;;10.93;79.45;95867.88;6058207;23;20209;-69
2020/12/22 10:53:40;;;;;;;1.23;0.10;;;;;;;10.91;78.88;95874.38;6058457;23;20199;-69
2020/12/22 10:56:10;;;;;;;0.20;0.20;;;;;;;10.91;78.66;95917.44;6059511;23;20214;-69
2020/12/22 10:58:38;;;;;;;0.10;0.00;;;;;;;11.00;78.55;95860.91;6058185;23;20205;-69
2020/12/22 11:01:06;;;;;;;0.50;0.10;;;;;;;11.04;77.86;95870.09;6059354;23;20817;-70
2020/12/22 11:03:33;;;;;;;0.10;0.10;;;;;;;11.11;77.60;95865.72;6057647;23;20202;-69
2020/12/22 11:06:13;;;;;;;0.17;0.10;;;;;;;11.02;78.75;95864.16;6081801;23;20220;-69
2020/12/22 11:08:41;;;;;;;0.10;0.10;;;;;;;10.90;80.59;95855.06;6031659;23;20215;-70
2020/12/22 11:11:09;;;;;;;0.37;0.37;;;;;;;10.86;81.35;95851.13;6030598;23;20592;-69
2020/12/22 11:13:36;;;;;;;0.30;0.20;;;;;;;10.96;80.26;95827.91;6030436;23;20203;-70
2020/12/22 11:16:06;;;;;;;0.20;0.20;;;;;;;11.01;79.77;95843.22;6030886;23;20846;-70
2020/12/22 11:18:34;;;;;;;0.10;0.07;;;;;;;11.19;79.24;95850.78;6028729;23;21909;-69
2020/12/22 11:21:02;;;;;;;0.20;0.10;;;;;;;11.32;78.58;95825.34;6030493;23;20203;-69
2020/12/22 11:23:43;;;;;;;0.10;0.10;;;;;;;11.40;78.53;95832.34;6028887;23;20199;-69
2020/12/22 11:26:14;;;;;;;2.67;0.10;;;;;;;11.35;78.43;95850.59;6029499;23;20203;-69
2020/12/22 11:28:41;;;;;;;0.27;0.10;;;;;;;11.37;77.69;95845.94;6030580;23;20208;-69
2020/12/22 11:31:09;;;;;;;0.30;0.10;;;;;;;11.36;77.14;95828.47;6028095;23;20203;-70
2020/12/22 11:33:36;;;;;;;0.20;0.10;;;;;;;11.32;77.61;95825.34;6030044;23;20203;-69
2020/12/22 11:36:04;;;;;;;1.80;0.10;;;;;;;11.33;77.69;95852.59;6029531;23;20254;-70
2020/12/22 11:38:31;;;;;;;0.10;0.00;;;;;;;11.32;78.03;95856.22;6029238;23;20215;-70
2020/12/22 11:40:58;;;;;;;0.40;0.40;;;;;;;11.34;77.79;95859.53;6028642;23;20208;-69
2020/12/22 11:43:25;;;;;;;0.10;0.10;;;;;;;11.36;77.79;95868.91;6028893;23;20691;-69
2020/12/22 11:45:52;;;;;;;0.17;0.17;;;;;;;11.47;76.54;95854.41;6030718;23;20276;-68